sensor_id;sensor_type;location;lat;lon;timestamp;pressure;altitude;pressure_sealevel;temperature;humidity
10720;BME280;5411;58.386;15.560;2024-02-21T00:01:15;77723.13;;;-144.36;100.00
10720;BME280;5411;58.386;15.560;2024-02-21T00:03:48;77719.06;;;-144.36;100.00
10720;BME280;5411;58.386;15.560;2024-02-21T00:06:17;77712.94;;;-144.36;100.00
10720;BME280;5411;58.386;15.560;2024-02-21T00:08:45;77710.88;;;-144.36;100.00
10720;BME280;5411;58.386;15.560;2024-02-21T00:11:13;77702.72;;;-144.36;100.00
10720;BME280;5411;58.386;15.560;2024-02-21T00:13:43;77702.72;;;-144.36;100.00
10720;BME280;5411;58.386;15.560;2024-02-21T00:16:14;77702.72;;;-144.36;100.00
10720;BME280;5411;58.386;15.560;2024-02-21T00:18:43;77694.56;;;-144.36;100.00
10720;BME280;5411;58.386;15.560;2024-02-21T00:21:11;77688.44;;;-144.36;100.00
10720;BME280;5411;58.386;15.560;2024-02-21T00:23:45;77678.22;;;-144.36;100.00
10720;BME280;5411;58.386;15.560;2024-02-21T00:26:14;77678.22;;;-144.36;100.00
10720;BME280;5411;58.386;15.560;2024-02-21T00:28:45;77668.03;;;-144.36;100.00
10720;BME280;5411;58.386;15.560;2024-02-21T00:31:14;77663.94;;;-144.36;100.00
10720;BME280;5411;58.386;15.560;2024-02-21T00:33:42;77651.69;;;-144.36;100.00
10720;BME280;5411;58.386;15.560;2024-02-21T00:36:10;77645.56;;;-144.36;100.00
10720;BME280;5411;58.386;15.560;2024-02-21T00:38:39;77645.56;;;-144.36;100.00
10720;BME280;5411;58.386;15.560;2024-02-21T00:41:07;77643.53;;;-144.36;100.00
10720;BME280;5411;58.386;15.560;2024-02-21T00:43:35;77647.63;;;-144.36;100.00
10720;BME280;5411;58.386;15.560;2024-02-21T00:46:07;77643.53;;;-144.36;100.00
10720;BME280;5411;58.386;15.560;2024-02-21T00:48:36;77635.38;;;-144.36;100.00
10720;BME280;5411;58.386;15.560;2024-02-21T00:51:04;77635.38;;;-144.36;100.00
10720;BME280;5411;58.386;15.560;2024-02-21T00:53:33;77637.41;;;-144.36;100.00
10720;BME280;5411;58.386;15.560;2024-02-21T00:56:05;77627.22;;;-144.36;100.00
10720;BME280;5411;58.386;15.560;2024-02-21T00:58:34;77625.16;;;-144.36;100.00
10720;BME280;5411;58.386;15.560;2024-02-21T01:01:02;77623.13;;;-144.36;100.00
10720;BME280;5411;58.386;15.560;2024-02-21T01:03:32;77614.97;;;-144.36;100.00
10720;BME280;5411;58.386;15.560;2024-02-21T01:06:01;77612.94;;;-144.36;100.00
10720;BME280;5411;58.386;15.560;2024-02-21T01:08:32;77608.84;;;-144.36;100.00
10720;BME280;5411;58.386;15.560;2024-02-21T01:11:00;77600.69;;;-144.36;100.00
10720;BME280;5411;58.386;15.560;2024-02-21T01:13:29;77590.47;;;-144.36;100.00
10720;BME280;5411;58.386;15.560;2024-02-21T01:15:57;77588.44;;;-144.36;100.00
10720;BME280;5411;58.386;15.560;2024-02-21T01:18:25;77588.44;;;-144.36;100.00
10720;BME280;5411;58.386;15.560;2024-02-21T01:20:55;77590.47;;;-144.36;100.00
10720;BME280;5411;58.386;15.560;2024-02-21T01:23:24;77582.31;;;-144.36;100.00
10720;BME280;5411;58.386;15.560;2024-02-21T01:25:52;77570.06;;;-144.36;100.00
10720;BME280;5411;58.386;15.560;2024-02-21T01:28:22;77561.91;;;-144.36;100.00
10720;BME280;5411;58.386;15.560;2024-02-21T01:30:50;77559.88;;;-144.36;100.00
10720;BME280;5411;58.386;15.560;2024-02-21T01:33:18;77559.88;;;-144.36;100.00
10720;BME280;5411;58.386;15.560;2024-02-21T01:35:48;77543.53;;;-144.36;100.00
10720;BME280;5411;58.386;15.560;2024-02-21T01:38:18;77541.50;;;-144.36;100.00
10720;BME280;5411;58.386;15.560;2024-02-21T01:40:47;77531.28;;;-144.36;100.00
10720;BME280;5411;58.386;15.560;2024-02-21T01:43:16;77535.38;;;-144.36;100.00
10720;BME280;5411;58.386;15.560;2024-02-21T01:45:49;77523.13;;;-144.36;100.00
10720;BME280;5411;58.386;15.560;2024-02-21T01:48:18;77521.09;;;-144.36;100.00
10720;BME280;5411;58.386;15.560;2024-02-21T01:50:49;77514.97;;;-144.36;100.00
10720;BME280;5411;58.386;15.560;2024-02-21T01:53:20;77506.81;;;-144.36;100.00
10720;BME280;5411;58.386;15.560;2024-02-21T01:55:49;77498.63;;;-144.36;100.00
10720;BME280;5411;58.386;15.560;2024-02-21T01:58:18;77490.47;;;-144.36;100.00
10720;BME280;5411;58.386;15.560;2024-02-21T02:00:48;77494.56;;;-144.36;100.00
10720;BME280;5411;58.386;15.560;2024-02-21T02:03:17;77490.47;;;-144.36;100.00
10720;BME280;5411;58.386;15.560;2024-02-21T02:05:46;77486.41;;;-144.36;100.00
10720;BME280;5411;58.386;15.560;2024-02-21T02:08:15;77474.16;;;-144.36;100.00
10720;BME280;5411;58.386;15.560;2024-02-21T02:10:49;77474.16;;;-144.36;100.00
10720;BME280;5411;58.386;15.560;2024-02-21T02:13:17;77472.09;;;-144.36;100.00
10720;BME280;5411;58.386;15.560;2024-02-21T02:15:47;77468.03;;;-144.36;100.00
10720;BME280;5411;58.386;15.560;2024-02-21T02:18:16;77470.06;;;-144.36;100.00
10720;BME280;5411;58.386;15.560;2024-02-21T02:20:47;77465.97;;;-144.36;100.00
10720;BME280;5411;58.386;15.560;2024-02-21T02:23:23;77457.81;;;-144.36;100.00
10720;BME280;5411;58.386;15.560;2024-02-21T02:25:51;77455.78;;;-144.36;100.00
10720;BME280;5411;58.386;15.560;2024-02-21T02:28:21;77447.63;;;-144.36;100.00
10720;BME280;5411;58.386;15.560;2024-02-21T02:30:49;77445.56;;;-144.36;100.00
10720;BME280;5411;58.386;15.560;2024-02-21T02:33:18;77441.50;;;-144.36;100.00
10720;BME280;5411;58.386;15.560;2024-02-21T02:35:47;77437.41;;;-144.36;100.00
10720;BME280;5411;58.386;15.560;2024-02-21T02:38:15;77433.34;;;-144.36;100.00
10720;BME280;5411;58.386;15.560;2024-02-21T02:40:45;77429.25;;;-144.36;100.00
10720;BME280;5411;58.386;15.560;2024-02-21T02:43:15;77427.22;;;-144.36;100.00
10720;BME280;5411;58.386;15.560;2024-02-21T02:45:46;77425.16;;;-144.36;100.00
10720;BME280;5411;58.386;15.560;2024-02-21T02:48:14;77425.16;;;-144.36;100.00
10720;BME280;5411;58.386;15.560;2024-02-21T02:50:42;77425.16;;;-144.36;100.00
10720;BME280;5411;58.386;15.560;2024-02-21T02:53:12;77421.09;;;-144.36;100.00
10720;BME280;5411;58.386;15.560;2024-02-21T02:55:41;77417.00;;;-144.36;100.00
10720;BME280;5411;58.386;15.560;2024-02-21T02:58:12;77406.81;;;-144.36;100.00
10720;BME280;5411;58.386;15.560;2024-02-21T03:00:41;77410.88;;;-144.36;100.00
10720;BME280;5411;58.386;15.560;2024-02-21T03:03:09;77406.81;;;-144.36;100.00
10720;BME280;5411;58.386;15.560;2024-02-21T03:05:38;77404.75;;;-144.36;100.00
10720;BME280;5411;58.386;15.560;2024-02-21T03:08:06;77400.69;;;-144.36;100.00
10720;BME280;5411;58.386;15.560;2024-02-21T03:10:40;77390.47;;;-144.36;100.00
10720;BME280;5411;58.386;15.560;2024-02-21T03:13:08;77388.44;;;-144.36;100.00
10720;BME280;5411;58.386;15.560;2024-02-21T03:15:39;77380.28;;;-144.36;100.00
10720;BME280;5411;58.386;15.560;2024-02-21T03:18:10;77372.09;;;-144.36;100.00
10720;BME280;5411;58.386;15.560;2024-02-21T03:20:39;77368.03;;;-144.36;100.00
10720;BME280;5411;58.386;15.560;2024-02-21T03:23:07;77359.88;;;-144.36;100.00
10720;BME280;5411;58.386;15.560;2024-02-21T03:25:35;77353.75;;;-144.36;100.00
10720;BME280;5411;58.386;15.560;2024-02-21T03:28:04;77353.75;;;-144.36;100.00
10720;BME280;5411;58.386;15.560;2024-02-21T03:30:35;77349.66;;;-144.36;100.00
10720;BME280;5411;58.386;15.560;2024-02-21T03:33:05;77343.53;;;-144.36;100.00
10720;BME280;5411;58.386;15.560;2024-02-21T03:35:33;77339.47;;;-144.36;100.00
10720;BME280;5411;58.386;15.560;2024-02-21T03:38:01;77335.38;;;-144.36;100.00
10720;BME280;5411;58.386;15.560;2024-02-21T03:40:30;77327.22;;;-144.36;100.00
10720;BME280;5411;58.386;15.560;2024-02-21T03:42:58;77317.00;;;-144.36;100.00
10720;BME280;5411;58.386;15.560;2024-02-21T03:45:27;77312.94;;;-144.36;100.00
10720;BME280;5411;58.386;15.560;2024-02-21T03:47:56;77314.97;;;-144.36;100.00
10720;BME280;5411;58.386;15.560;2024-02-21T03:50:26;77312.94;;;-144.36;100.00
10720;BME280;5411;58.386;15.560;2024-02-21T03:52:57;77308.84;;;-144.36;100.00
10720;BME280;5411;58.386;15.560;2024-02-21T03:55:26;77308.84;;;-144.36;100.00
10720;BME280;5411;58.386;15.560;2024-02-21T03:57:54;77302.72;;;-144.36;100.00
10720;BME280;5411;58.386;15.560;2024-02-21T04:00:23;77296.59;;;-144.36;100.00
10720;BME280;5411;58.386;15.560;2024-02-21T04:02:52;77294.56;;;-144.36;100.00
10720;BME280;5411;58.386;15.560;2024-02-21T04:05:20;77296.59;;;-144.36;100.00
10720;BME280;5411;58.386;15.560;2024-02-21T04:07:50;77284.34;;;-144.36;100.00
10720;BME280;5411;58.386;15.560;2024-02-21T04:10:22;77278.25;;;-144.36;100.00
10720;BME280;5411;58.386;15.560;2024-02-21T04:12:50;77272.13;;;-144.36;100.00
10720;BME280;5411;58.386;15.560;2024-02-21T04:15:19;77266.00;;;-144.36;100.00
10720;BME280;5411;58.386;15.560;2024-02-21T04:17:50;77266.00;;;-144.36;100.00
10720;BME280;5411;58.386;15.560;2024-02-21T04:20:23;77259.88;;;-144.36;100.00
10720;BME280;5411;58.386;15.560;2024-02-21T04:22:55;77253.75;;;-144.36;100.00
10720;BME280;5411;58.386;15.560;2024-02-21T04:25:24;77249.66;;;-144.36;100.00
10720;BME280;5411;58.386;15.560;2024-02-21T04:27:53;77237.41;;;-144.36;100.00
10720;BME280;5411;58.386;15.560;2024-02-21T04:30:21;77237.41;;;-144.36;100.00
10720;BME280;5411;58.386;15.560;2024-02-21T04:32:51;77231.31;;;-144.36;100.00
10720;BME280;5411;58.386;15.560;2024-02-21T04:35:20;77231.31;;;-144.36;100.00
10720;BME280;5411;58.386;15.560;2024-02-21T04:37:49;77221.09;;;-144.36;100.00
10720;BME280;5411;58.386;15.560;2024-02-21T04:40:22;77221.09;;;-144.36;100.00
10720;BME280;5411;58.386;15.560;2024-02-21T04:42:50;77223.13;;;-144.36;100.00
10720;BME280;5411;58.386;15.560;2024-02-21T04:45:21;77217.00;;;-144.36;100.00
10720;BME280;5411;58.386;15.560;2024-02-21T04:47:49;77221.09;;;-144.36;100.00
10720;BME280;5411;58.386;15.560;2024-02-21T04:50:17;77214.97;;;-144.36;100.00
10720;BME280;5411;58.386;15.560;2024-02-21T04:52:46;77212.94;;;-144.36;100.00
10720;BME280;5411;58.386;15.560;2024-02-21T04:55:14;77212.94;;;-144.36;100.00
10720;BME280;5411;58.386;15.560;2024-02-21T04:57:44;77208.84;;;-144.36;100.00
10720;BME280;5411;58.386;15.560;2024-02-21T05:00:13;77196.59;;;-144.36;100.00
10720;BME280;5411;58.386;15.560;2024-02-21T05:02:41;77194.56;;;-144.36;100.00
10720;BME280;5411;58.386;15.560;2024-02-21T05:05:10;77192.53;;;-144.36;100.00
10720;BME280;5411;58.386;15.560;2024-02-21T05:07:39;77192.53;;;-144.36;100.00
10720;BME280;5411;58.386;15.560;2024-02-21T05:10:09;77186.41;;;-144.36;100.00
10720;BME280;5411;58.386;15.560;2024-02-21T05:12:44;77186.41;;;-144.36;100.00
10720;BME280;5411;58.386;15.560;2024-02-21T05:15:12;77180.28;;;-144.36;100.00
10720;BME280;5411;58.386;15.560;2024-02-21T05:17:41;77182.31;;;-144.36;100.00
10720;BME280;5411;58.386;15.560;2024-02-21T05:20:10;77184.38;;;-144.36;100.00
10720;BME280;5411;58.386;15.560;2024-02-21T05:22:40;77184.38;;;-144.36;100.00
10720;BME280;5411;58.386;15.560;2024-02-21T05:25:09;77176.19;;;-144.36;100.00
10720;BME280;5411;58.386;15.560;2024-02-21T05:27:39;77184.38;;;-144.36;100.00
10720;BME280;5411;58.386;15.560;2024-02-21T05:30:10;77172.13;;;-144.36;100.00
10720;BME280;5411;58.386;15.560;2024-02-21T05:32:41;77174.16;;;-144.36;100.00
10720;BME280;5411;58.386;15.560;2024-02-21T05:35:13;77172.13;;;-144.36;100.00
10720;BME280;5411;58.386;15.560;2024-02-21T05:37:41;77168.03;;;-144.36;100.00
10720;BME280;5411;58.386;15.560;2024-02-21T05:40:10;77161.91;;;-144.36;100.00
10720;BME280;5411;58.386;15.560;2024-02-21T05:42:40;77166.00;;;-144.36;100.00
10720;BME280;5411;58.386;15.560;2024-02-21T05:45:10;77161.91;;;-144.36;100.00
10720;BME280;5411;58.386;15.560;2024-02-21T05:47:40;77159.88;;;-144.36;100.00
10720;BME280;5411;58.386;15.560;2024-02-21T05:50:09;77155.78;;;-144.36;100.00
10720;BME280;5411;58.386;15.560;2024-02-21T05:52:37;77159.88;;;-144.36;100.00
10720;BME280;5411;58.386;15.560;2024-02-21T05:55:07;77153.75;;;-144.36;100.00
10720;BME280;5411;58.386;15.560;2024-02-21T05:57:35;77159.88;;;-144.36;100.00
10720;BME280;5411;58.386;15.560;2024-02-21T06:00:06;77159.88;;;-144.36;100.00
10720;BME280;5411;58.386;15.560;2024-02-21T06:02:36;77157.84;;;-144.36;100.00
10720;BME280;5411;58.386;15.560;2024-02-21T06:05:04;77157.84;;;-144.36;100.00
10720;BME280;5411;58.386;15.560;2024-02-21T06:07:34;77149.69;;;-144.36;100.00
10720;BME280;5411;58.386;15.560;2024-02-21T06:10:03;77141.50;;;-144.36;100.00
10720;BME280;5411;58.386;15.560;2024-02-21T06:12:34;77143.56;;;-144.36;100.00
10720;BME280;5411;58.386;15.560;2024-02-21T06:15:03;77145.59;;;-144.36;100.00
10720;BME280;5411;58.386;15.560;2024-02-21T06:17:31;77141.50;;;-144.36;100.00
10720;BME280;5411;58.386;15.560;2024-02-21T06:20:01;77137.44;;;-144.36;100.00
10720;BME280;5411;58.386;15.560;2024-02-21T06:22:30;77139.47;;;-144.36;100.00
10720;BME280;5411;58.386;15.560;2024-02-21T06:24:58;77143.56;;;-144.36;100.00
10720;BME280;5411;58.386;15.560;2024-02-21T06:27:27;77135.38;;;-144.36;100.00
10720;BME280;5411;58.386;15.560;2024-02-21T06:29:56;77133.34;;;-144.36;100.00
10720;BME280;5411;58.386;15.560;2024-02-21T06:32:24;77137.44;;;-144.36;100.00
10720;BME280;5411;58.386;15.560;2024-02-21T06:34:52;77131.31;;;-144.36;100.00
10720;BME280;5411;58.386;15.560;2024-02-21T06:37:22;77131.31;;;-144.36;100.00
10720;BME280;5411;58.386;15.560;2024-02-21T06:39:51;77125.19;;;-144.36;100.00
10720;BME280;5411;58.386;15.560;2024-02-21T06:42:20;77125.19;;;-144.36;100.00
10720;BME280;5411;58.386;15.560;2024-02-21T06:44:48;77125.19;;;-144.36;100.00
10720;BME280;5411;58.386;15.560;2024-02-21T06:47:17;77119.06;;;-144.36;100.00
10720;BME280;5411;58.386;15.560;2024-02-21T06:49:48;77117.03;;;-144.36;100.00
10720;BME280;5411;58.386;15.560;2024-02-21T06:52:17;77110.91;;;-144.36;100.00
10720;BME280;5411;58.386;15.560;2024-02-21T06:54:48;77106.81;;;-144.36;100.00
10720;BME280;5411;58.386;15.560;2024-02-21T06:57:17;77102.75;;;-144.36;100.00
10720;BME280;5411;58.386;15.560;2024-02-21T06:59:45;77098.66;;;-144.36;100.00
10720;BME280;5411;58.386;15.560;2024-02-21T07:02:13;77094.56;;;-144.36;100.00
10720;BME280;5411;58.386;15.560;2024-02-21T07:04:42;77090.50;;;-144.36;100.00
10720;BME280;5411;58.386;15.560;2024-02-21T07:07:13;77094.56;;;-144.36;100.00
10720;BME280;5411;58.386;15.560;2024-02-21T07:09:41;77086.41;;;-144.36;100.00
10720;BME280;5411;58.386;15.560;2024-02-21T07:12:11;77078.25;;;-144.36;100.00
10720;BME280;5411;58.386;15.560;2024-02-21T07:14:39;77080.28;;;-144.36;100.00
10720;BME280;5411;58.386;15.560;2024-02-21T07:17:08;77070.09;;;-144.36;100.00
10720;BME280;5411;58.386;15.560;2024-02-21T07:19:36;77068.06;;;-144.36;100.00
10720;BME280;5411;58.386;15.560;2024-02-21T07:22:04;77059.88;;;-144.36;100.00
10720;BME280;5411;58.386;15.560;2024-02-21T07:24:33;77055.81;;;-144.36;100.00
10720;BME280;5411;58.386;15.560;2024-02-21T07:27:01;77049.69;;;-144.36;100.00
10720;BME280;5411;58.386;15.560;2024-02-21T07:29:33;77045.59;;;-144.36;100.00
10720;BME280;5411;58.386;15.560;2024-02-21T07:32:02;77037.44;;;-144.36;100.00
10720;BME280;5411;58.386;15.560;2024-02-21T07:34:31;77029.28;;;-144.36;100.00
10720;BME280;5411;58.386;15.560;2024-02-21T07:36:59;77027.25;;;-144.36;100.00
10720;BME280;5411;58.386;15.560;2024-02-21T07:39:28;77023.16;;;-144.36;100.00
10720;BME280;5411;58.386;15.560;2024-02-21T07:41:56;77017.03;;;-144.36;100.00
10720;BME280;5411;58.386;15.560;2024-02-21T07:44:24;77015.00;;;-144.36;100.00
10720;BME280;5411;58.386;15.560;2024-02-21T07:46:55;77010.91;;;-144.36;100.00
10720;BME280;5411;58.386;15.560;2024-02-21T07:49:24;77012.94;;;-144.36;100.00
10720;BME280;5411;58.386;15.560;2024-02-21T07:51:52;77004.78;;;-144.36;100.00
10720;BME280;5411;58.386;15.560;2024-02-21T07:54:21;76994.59;;;-144.36;100.00
10720;BME280;5411;58.386;15.560;2024-02-21T07:56:49;76992.53;;;-144.36;100.00
10720;BME280;5411;58.386;15.560;2024-02-21T07:59:17;76988.47;;;-144.36;100.00
10720;BME280;5411;58.386;15.560;2024-02-21T08:01:46;76982.34;;;-144.36;100.00
10720;BME280;5411;58.386;15.560;2024-02-21T08:04:15;76980.31;;;-144.36;100.00
10720;BME280;5411;58.386;15.560;2024-02-21T08:06:44;76980.31;;;-144.36;100.00
10720;BME280;5411;58.386;15.560;2024-02-21T08:09:15;76968.06;;;-144.36;100.00
10720;BME280;5411;58.386;15.560;2024-02-21T08:11:44;76968.06;;;-144.36;100.00
10720;BME280;5411;58.386;15.560;2024-02-21T08:14:14;76953.78;;;-144.36;100.00
10720;BME280;5411;58.386;15.560;2024-02-21T08:16:47;76955.81;;;-144.36;100.00
10720;BME280;5411;58.386;15.560;2024-02-21T08:19:16;76953.78;;;-144.36;100.00
10720;BME280;5411;58.386;15.560;2024-02-21T08:21:45;76951.75;;;-144.36;100.00
10720;BME280;5411;58.386;15.560;2024-02-21T08:24:14;76951.75;;;-144.36;100.00
10720;BME280;5411;58.386;15.560;2024-02-21T08:26:43;76953.78;;;-144.36;100.00
10720;BME280;5411;58.386;15.560;2024-02-21T08:29:12;76951.75;;;-144.36;100.00
10720;BME280;5411;58.386;15.560;2024-02-21T08:31:40;76951.75;;;-144.36;100.00
10720;BME280;5411;58.386;15.560;2024-02-21T08:34:09;76953.78;;;-144.36;100.00
10720;BME280;5411;58.386;15.560;2024-02-21T08:36:40;76953.78;;;-144.36;100.00
10720;BME280;5411;58.386;15.560;2024-02-21T08:39:08;76949.69;;;-144.36;100.00
10720;BME280;5411;58.386;15.560;2024-02-21T08:41:37;76953.78;;;-144.36;100.00
10720;BME280;5411;58.386;15.560;2024-02-21T08:44:23;76947.66;;;-144.36;100.00
10720;BME280;5411;58.386;15.560;2024-02-21T08:46:54;76951.75;;;-144.36;100.00
10720;BME280;5411;58.386;15.560;2024-02-21T08:49:23;76947.66;;;-144.36;100.00
10720;BME280;5411;58.386;15.560;2024-02-21T08:52:01;76953.78;;;-144.36;100.00
10720;BME280;5411;58.386;15.560;2024-02-21T08:54:31;76957.84;;;-144.36;100.00
10720;BME280;5411;58.386;15.560;2024-02-21T08:56:59;76947.66;;;-144.36;100.00
10720;BME280;5411;58.386;15.560;2024-02-21T08:59:27;76959.91;;;-144.36;100.00
10720;BME280;5411;58.386;15.560;2024-02-21T09:01:56;76951.75;;;-144.36;100.00
10720;BME280;5411;58.386;15.560;2024-02-21T09:04:26;76949.69;;;-144.36;100.00
10720;BME280;5411;58.386;15.560;2024-02-21T09:06:54;76943.56;;;-144.36;100.00
10720;BME280;5411;58.386;15.560;2024-02-21T09:09:24;76939.50;;;-144.36;100.00
10720;BME280;5411;58.386;15.560;2024-02-21T09:11:55;76927.25;;;-144.36;100.00
10720;BME280;5411;58.386;15.560;2024-02-21T09:14:24;76923.16;;;-144.36;100.00
10720;BME280;5411;58.386;15.560;2024-02-21T09:16:52;76919.09;;;-144.36;100.00
10720;BME280;5411;58.386;15.560;2024-02-21T09:19:23;76921.13;;;-144.36;100.00
10720;BME280;5411;58.386;15.560;2024-02-21T09:21:52;76912.97;;;-144.36;100.00
10720;BME280;5411;58.386;15.560;2024-02-21T09:24:20;76912.97;;;-144.36;100.00
10720;BME280;5411;58.386;15.560;2024-02-21T09:26:50;76908.88;;;-144.36;100.00
10720;BME280;5411;58.386;15.560;2024-02-21T09:29:18;76912.97;;;-144.36;100.00
10720;BME280;5411;58.386;15.560;2024-02-21T09:31:52;76902.75;;;-144.36;100.00
10720;BME280;5411;58.386;15.560;2024-02-21T09:34:21;76896.63;;;-144.36;100.00
10720;BME280;5411;58.386;15.560;2024-02-21T09:36:50;76888.47;;;-144.36;100.00
10720;BME280;5411;58.386;15.560;2024-02-21T09:39:18;76880.31;;;-144.36;100.00
10720;BME280;5411;58.386;15.560;2024-02-21T09:41:53;76870.13;;;-144.36;100.00
10720;BME280;5411;58.386;15.560;2024-02-21T09:44:24;76847.66;;;-144.36;100.00
10720;BME280;5411;58.386;15.560;2024-02-21T09:47:02;76831.34;;;-144.36;100.00
10720;BME280;5411;58.386;15.560;2024-02-21T09:49:33;76804.81;;;-144.36;100.00
10720;BME280;5411;58.386;15.560;2024-02-21T09:52:05;76786.47;;;-144.36;100.00
10720;BME280;5411;58.386;15.560;2024-02-21T09:54:34;76766.06;;;-144.36;100.00
10720;BME280;5411;58.386;15.560;2024-02-21T09:57:05;76743.59;;;-144.36;100.00
10720;BME280;5411;58.386;15.560;2024-02-21T09:59:34;76733.41;;;-144.36;100.00
10720;BME280;5411;58.386;15.560;2024-02-21T10:02:02;76713.00;;;-144.36;100.00
10720;BME280;5411;58.386;15.560;2024-02-21T10:04:34;76706.88;;;-144.36;100.00
10720;BME280;5411;58.386;15.560;2024-02-21T10:07:04;76700.75;;;-144.36;100.00
10720;BME280;5411;58.386;15.560;2024-02-21T10:09:32;76700.75;;;-144.36;100.00
10720;BME280;5411;58.386;15.560;2024-02-21T10:12:12;76702.81;;;-144.36;100.00
10720;BME280;5411;58.386;15.560;2024-02-21T10:14:40;76710.97;;;-144.36;100.00
10720;BME280;5411;58.386;15.560;2024-02-21T10:17:16;76715.03;;;-144.36;100.00
10720;BME280;5411;58.386;15.560;2024-02-21T10:19:46;76733.41;;;-144.36;100.00
10720;BME280;5411;58.386;15.560;2024-02-21T10:22:17;76733.41;;;-144.36;100.00
10720;BME280;5411;58.386;15.560;2024-02-21T10:24:52;76739.53;;;-144.36;100.00
10720;BME280;5411;58.386;15.560;2024-02-21T10:27:23;76743.59;;;-144.36;100.00
10720;BME280;5411;58.386;15.560;2024-02-21T10:29:51;76745.66;;;-144.36;100.00
10720;BME280;5411;58.386;15.560;2024-02-21T10:32:20;76755.84;;;-144.36;100.00
10720;BME280;5411;58.386;15.560;2024-02-21T10:34:49;76759.94;;;-144.36;100.00
10720;BME280;5411;58.386;15.560;2024-02-21T10:37:20;76761.97;;;-144.36;100.00
10720;BME280;5411;58.386;15.560;2024-02-21T10:39:49;76755.84;;;-144.36;100.00
10720;BME280;5411;58.386;15.560;2024-02-21T10:42:23;76759.94;;;-144.36;100.00
10720;BME280;5411;58.386;15.560;2024-02-21T10:45:03;76759.94;;;-144.36;100.00
10720;BME280;5411;58.386;15.560;2024-02-21T10:47:33;76761.97;;;-144.36;100.00
10720;BME280;5411;58.386;15.560;2024-02-21T10:50:06;76764.00;;;-144.36;100.00
10720;BME280;5411;58.386;15.560;2024-02-21T10:52:44;76764.00;;;-144.36;100.00
10720;BME280;5411;58.386;15.560;2024-02-21T10:55:20;76776.25;;;-144.36;100.00
10720;BME280;5411;58.386;15.560;2024-02-21T10:57:52;76786.47;;;-144.36;100.00
10720;BME280;5411;58.386;15.560;2024-02-21T11:00:20;76796.66;;;-144.36;100.00
10720;BME280;5411;58.386;15.560;2024-02-21T11:02:54;76821.16;;;-144.36;100.00
10720;BME280;5411;58.386;15.560;2024-02-21T11:05:26;76849.72;;;-144.36;100.00
10720;BME280;5411;58.386;15.560;2024-02-21T11:07:56;76870.13;;;-144.36;100.00
10720;BME280;5411;58.386;15.560;2024-02-21T11:10:26;76880.31;;;-144.36;100.00
10720;BME280;5411;58.386;15.560;2024-02-21T11:13:07;76894.59;;;-144.36;100.00
10720;BME280;5411;58.386;15.560;2024-02-21T11:15:35;76902.75;;;-144.36;100.00
10720;BME280;5411;58.386;15.560;2024-02-21T11:18:05;76898.69;;;-144.36;100.00
10720;BME280;5411;58.386;15.560;2024-02-21T11:20:34;76896.63;;;-144.36;100.00
10720;BME280;5411;58.386;15.560;2024-02-21T11:23:03;76898.69;;;-144.36;100.00
10720;BME280;5411;58.386;15.560;2024-02-21T11:25:32;76896.63;;;-144.36;100.00
10720;BME280;5411;58.386;15.560;2024-02-21T11:28:02;76892.56;;;-144.36;100.00
10720;BME280;5411;58.386;15.560;2024-02-21T11:30:35;76880.31;;;-144.36;100.00
10720;BME280;5411;58.386;15.560;2024-02-21T11:33:06;76874.19;;;-144.36;100.00
10720;BME280;5411;58.386;15.560;2024-02-21T11:35:36;76868.06;;;-144.36;100.00
10720;BME280;5411;58.386;15.560;2024-02-21T11:38:08;76874.19;;;-144.36;100.00
10720;BME280;5411;58.386;15.560;2024-02-21T11:40:45;76874.19;;;-144.36;100.00
10720;BME280;5411;58.386;15.560;2024-02-21T11:43:15;76874.19;;;-144.36;100.00
10720;BME280;5411;58.386;15.560;2024-02-21T11:45:47;76892.56;;;-144.36;100.00
10720;BME280;5411;58.386;15.560;2024-02-21T11:48:15;76904.81;;;-144.36;100.00
10720;BME280;5411;58.386;15.560;2024-02-21T11:50:53;76906.84;;;-144.36;100.00
10720;BME280;5411;58.386;15.560;2024-02-21T11:53:21;76904.81;;;-144.36;100.00
10720;BME280;5411;58.386;15.560;2024-02-21T11:55:50;76912.97;;;-144.36;100.00
10720;BME280;5411;58.386;15.560;2024-02-21T11:58:18;76917.03;;;-144.36;100.00
10720;BME280;5411;58.386;15.560;2024-02-21T12:00:48;76917.03;;;-144.36;100.00
10720;BME280;5411;58.386;15.560;2024-02-21T12:03:17;76921.13;;;-144.36;100.00
10720;BME280;5411;58.386;15.560;2024-02-21T12:05:45;76933.38;;;-144.36;100.00
10720;BME280;5411;58.386;15.560;2024-02-21T12:08:15;76931.34;;;-144.36;100.00
10720;BME280;5411;58.386;15.560;2024-02-21T12:10:44;76931.34;;;-144.36;100.00
10720;BME280;5411;58.386;15.560;2024-02-21T12:13:24;76931.34;;;-144.36;100.00
10720;BME280;5411;58.386;15.560;2024-02-21T12:15:53;76921.13;;;-144.36;100.00
10720;BME280;5411;58.386;15.560;2024-02-21T12:18:22;76921.13;;;-144.36;100.00
10720;BME280;5411;58.386;15.560;2024-02-21T12:20:50;76915.00;;;-144.36;100.00
10720;BME280;5411;58.386;15.560;2024-02-21T12:23:19;76910.94;;;-144.36;100.00
10720;BME280;5411;58.386;15.560;2024-02-21T12:25:53;76906.84;;;-144.36;100.00
10720;BME280;5411;58.386;15.560;2024-02-21T12:28:22;76908.88;;;-144.36;100.00
10720;BME280;5411;58.386;15.560;2024-02-21T12:30:50;76917.03;;;-144.36;100.00
10720;BME280;5411;58.386;15.560;2024-02-21T12:33:21;76912.97;;;-144.36;100.00
10720;BME280;5411;58.386;15.560;2024-02-21T12:35:49;76915.00;;;-144.36;100.00
10720;BME280;5411;58.386;15.560;2024-02-21T12:38:17;76923.16;;;-144.36;100.00
10720;BME280;5411;58.386;15.560;2024-02-21T12:40:47;76933.38;;;-144.36;100.00
10720;BME280;5411;58.386;15.560;2024-02-21T12:43:18;76937.44;;;-144.36;100.00